sensor_id;sensor_type;location;lat;lon;timestamp;P1;durP1;ratioP1;P2;durP2;ratioP2
50291;SDS011;36190;54.980;73.388;2023-03-01T00:01:02;8.80;;;3.90;;
50291;SDS011;36190;54.980;73.388;2023-03-01T00:03:30;9.63;;;4.20;;
50291;SDS011;36190;54.980;73.388;2023-03-01T00:05:58;9.50;;;4.40;;
50291;SDS011;36190;54.980;73.388;2023-03-01T00:08:27;8.88;;;4.00;;
50291;SDS011;36190;54.980;73.388;2023-03-01T00:11:03;10.77;;;4.57;;
50291;SDS011;36190;54.980;73.388;2023-03-01T00:13:32;9.60;;;3.95;;
50291;SDS011;36190;54.980;73.388;2023-03-01T00:16:01;9.85;;;4.30;;
50291;SDS011;36190;54.980;73.388;2023-03-01T00:18:30;9.20;;;4.30;;
50291;SDS011;36190;54.980;73.388;2023-03-01T00:20:57;10.52;;;4.10;;
50291;SDS011;36190;54.980;73.388;2023-03-01T00:23:25;10.55;;;5.13;;
50291;SDS011;36190;54.980;73.388;2023-03-01T00:25:54;10.05;;;4.53;;
50291;SDS011;36190;54.980;73.388;2023-03-01T00:28:22;10.43;;;4.10;;
50291;SDS011;36190;54.980;73.388;2023-03-01T00:30:49;10.20;;;4.53;;
50291;SDS011;36190;54.980;73.388;2023-03-01T00:33:17;11.90;;;4.97;;
50291;SDS011;36190;54.980;73.388;2023-03-01T00:35:44;10.77;;;4.80;;
50291;SDS011;36190;54.980;73.388;2023-03-01T00:38:12;10.35;;;4.47;;
50291;SDS011;36190;54.980;73.388;2023-03-01T00:40:39;11.43;;;4.93;;
50291;SDS011;36190;54.980;73.388;2023-03-01T00:43:09;12.40;;;4.75;;
50291;SDS011;36190;54.980;73.388;2023-03-01T00:45:36;10.50;;;4.65;;
50291;SDS011;36190;54.980;73.388;2023-03-01T00:48:04;10.63;;;5.05;;
50291;SDS011;36190;54.980;73.388;2023-03-01T00:50:32;12.05;;;5.07;;
50291;SDS011;36190;54.980;73.388;2023-03-01T00:52:59;11.43;;;5.03;;
50291;SDS011;36190;54.980;73.388;2023-03-01T00:55:27;10.45;;;4.47;;
50291;SDS011;36190;54.980;73.388;2023-03-01T00:57:54;10.43;;;4.60;;
50291;SDS011;36190;54.980;73.388;2023-03-01T01:00:23;9.52;;;4.30;;
50291;SDS011;36190;54.980;73.388;2023-03-01T01:02:53;9.27;;;4.22;;
50291;SDS011;36190;54.980;73.388;2023-03-01T01:05:20;9.38;;;4.05;;
50291;SDS011;36190;54.980;73.388;2023-03-01T01:07:48;9.88;;;4.45;;
50291;SDS011;36190;54.980;73.388;2023-03-01T01:10:16;9.45;;;4.22;;
50291;SDS011;36190;54.980;73.388;2023-03-01T01:12:44;10.70;;;4.15;;
50291;SDS011;36190;54.980;73.388;2023-03-01T01:15:13;11.00;;;4.55;;
50291;SDS011;36190;54.980;73.388;2023-03-01T01:17:43;9.70;;;4.18;;
50291;SDS011;36190;54.980;73.388;2023-03-01T01:20:11;9.70;;;3.95;;
50291;SDS011;36190;54.980;73.388;2023-03-01T01:22:38;10.88;;;4.32;;
50291;SDS011;36190;54.980;73.388;2023-03-01T01:25:06;11.05;;;5.15;;
50291;SDS011;36190;54.980;73.388;2023-03-01T01:27:34;11.10;;;4.57;;
50291;SDS011;36190;54.980;73.388;2023-03-01T01:30:02;9.38;;;4.30;;
50291;SDS011;36190;54.980;73.388;2023-03-01T01:32:30;10.05;;;4.32;;
50291;SDS011;36190;54.980;73.388;2023-03-01T01:34:59;10.10;;;4.18;;
50291;SDS011;36190;54.980;73.388;2023-03-01T01:37:27;11.73;;;5.07;;
50291;SDS011;36190;54.980;73.388;2023-03-01T01:39:58;9.50;;;4.32;;
50291;SDS011;36190;54.980;73.388;2023-03-01T01:42:29;10.23;;;4.82;;
50291;SDS011;36190;54.980;73.388;2023-03-01T01:48:00;12.00;;;5.13;;
50291;SDS011;36190;54.980;73.388;2023-03-01T01:50:33;10.10;;;4.80;;
50291;SDS011;36190;54.980;73.388;2023-03-01T01:53:05;11.25;;;5.00;;
50291;SDS011;36190;54.980;73.388;2023-03-01T01:55:36;11.52;;;4.60;;
50291;SDS011;36190;54.980;73.388;2023-03-01T01:58:06;10.27;;;4.70;;
50291;SDS011;36190;54.980;73.388;2023-03-01T02:00:37;11.38;;;5.05;;
50291;SDS011;36190;54.980;73.388;2023-03-01T02:03:07;12.30;;;5.30;;
50291;SDS011;36190;54.980;73.388;2023-03-01T02:05:40;12.25;;;5.22;;
50291;SDS011;36190;54.980;73.388;2023-03-01T02:08:14;11.65;;;5.35;;
50291;SDS011;36190;54.980;73.388;2023-03-01T02:10:45;13.80;;;6.22;;
50291;SDS011;36190;54.980;73.388;2023-03-01T02:13:15;11.23;;;4.97;;
50291;SDS011;36190;54.980;73.388;2023-03-01T02:15:42;10.63;;;4.47;;
50291;SDS011;36190;54.980;73.388;2023-03-01T02:18:11;11.10;;;5.20;;
50291;SDS011;36190;54.980;73.388;2023-03-01T02:20:44;14.27;;;5.18;;
50291;SDS011;36190;54.980;73.388;2023-03-01T02:23:23;10.57;;;4.50;;
50291;SDS011;36190;54.980;73.388;2023-03-01T02:25:52;12.13;;;4.88;;
50291;SDS011;36190;54.980;73.388;2023-03-01T02:28:32;12.68;;;5.32;;
50291;SDS011;36190;54.980;73.388;2023-03-01T02:31:02;12.75;;;5.28;;
50291;SDS011;36190;54.980;73.388;2023-03-01T02:33:49;11.05;;;4.70;;
50291;SDS011;36190;54.980;73.388;2023-03-01T02:36:20;12.73;;;5.60;;
50291;SDS011;36190;54.980;73.388;2023-03-01T02:38:51;11.80;;;5.40;;
50291;SDS011;36190;54.980;73.388;2023-03-01T02:41:22;12.60;;;5.10;;
50291;SDS011;36190;54.980;73.388;2023-03-01T02:43:54;12.52;;;5.40;;
50291;SDS011;36190;54.980;73.388;2023-03-01T02:46:23;11.02;;;5.05;;
50291;SDS011;36190;54.980;73.388;2023-03-01T02:48:53;12.07;;;5.63;;
50291;SDS011;36190;54.980;73.388;2023-03-01T02:51:26;13.20;;;6.22;;
50291;SDS011;36190;54.980;73.388;2023-03-01T02:54:08;14.30;;;6.00;;
50291;SDS011;36190;54.980;73.388;2023-03-01T02:56:43;13.43;;;5.97;;
50291;SDS011;36190;54.980;73.388;2023-03-01T02:59:15;12.18;;;5.75;;
50291;SDS011;36190;54.980;73.388;2023-03-01T03:01:45;17.30;;;6.40;;
50291;SDS011;36190;54.980;73.388;2023-03-01T03:04:14;15.40;;;6.72;;
50291;SDS011;36190;54.980;73.388;2023-03-01T03:06:43;14.18;;;6.38;;
50291;SDS011;36190;54.980;73.388;2023-03-01T03:09:11;14.40;;;6.35;;
50291;SDS011;36190;54.980;73.388;2023-03-01T03:11:40;13.73;;;6.47;;
50291;SDS011;36190;54.980;73.388;2023-03-01T03:14:08;13.13;;;6.32;;
50291;SDS011;36190;54.980;73.388;2023-03-01T03:16:41;16.02;;;6.15;;
50291;SDS011;36190;54.980;73.388;2023-03-01T03:19:09;11.40;;;5.60;;
50291;SDS011;36190;54.980;73.388;2023-03-01T03:21:37;17.55;;;7.50;;
50291;SDS011;36190;54.980;73.388;2023-03-01T03:24:04;14.32;;;6.68;;
50291;SDS011;36190;54.980;73.388;2023-03-01T03:26:32;16.13;;;7.22;;
50291;SDS011;36190;54.980;73.388;2023-03-01T03:28:59;14.52;;;7.00;;
50291;SDS011;36190;54.980;73.388;2023-03-01T03:31:27;12.15;;;5.55;;
50291;SDS011;36190;54.980;73.388;2023-03-01T03:33:56;13.57;;;5.90;;
50291;SDS011;36190;54.980;73.388;2023-03-01T03:36:24;14.57;;;6.30;;
50291;SDS011;36190;54.980;73.388;2023-03-01T03:38:52;12.95;;;6.25;;
50291;SDS011;36190;54.980;73.388;2023-03-01T03:41:19;14.38;;;6.28;;
50291;SDS011;36190;54.980;73.388;2023-03-01T03:43:47;15.18;;;6.32;;
50291;SDS011;36190;54.980;73.388;2023-03-01T03:46:15;13.82;;;5.32;;
50291;SDS011;36190;54.980;73.388;2023-03-01T03:48:43;12.65;;;6.57;;
50291;SDS011;36190;54.980;73.388;2023-03-01T03:51:14;15.15;;;6.72;;
50291;SDS011;36190;54.980;73.388;2023-03-01T03:53:44;16.15;;;7.60;;
50291;SDS011;36190;54.980;73.388;2023-03-01T03:56:12;14.88;;;6.70;;
50291;SDS011;36190;54.980;73.388;2023-03-01T03:58:39;17.83;;;7.43;;
50291;SDS011;36190;54.980;73.388;2023-03-01T04:01:07;16.85;;;6.65;;
50291;SDS011;36190;54.980;73.388;2023-03-01T04:03:34;16.38;;;7.15;;
50291;SDS011;36190;54.980;73.388;2023-03-01T04:06:02;12.30;;;6.18;;
50291;SDS011;36190;54.980;73.388;2023-03-01T04:08:32;15.57;;;7.15;;
50291;SDS011;36190;54.980;73.388;2023-03-01T04:11:02;15.73;;;7.68;;
50291;SDS011;36190;54.980;73.388;2023-03-01T04:13:44;13.73;;;6.35;;
50291;SDS011;36190;54.980;73.388;2023-03-01T04:16:12;13.95;;;7.00;;
50291;SDS011;36190;54.980;73.388;2023-03-01T04:18:39;11.30;;;6.07;;
50291;SDS011;36190;54.980;73.388;2023-03-01T04:21:06;16.02;;;7.57;;
50291;SDS011;36190;54.980;73.388;2023-03-01T04:23:35;12.45;;;5.90;;
50291;SDS011;36190;54.980;73.388;2023-03-01T04:26:03;11.25;;;5.70;;
50291;SDS011;36190;54.980;73.388;2023-03-01T04:28:32;16.33;;;7.68;;
50291;SDS011;36190;54.980;73.388;2023-03-01T04:31:02;14.05;;;7.10;;
50291;SDS011;36190;54.980;73.388;2023-03-01T04:33:38;12.35;;;6.40;;
50291;SDS011;36190;54.980;73.388;2023-03-01T04:36:07;12.70;;;5.90;;
50291;SDS011;36190;54.980;73.388;2023-03-01T04:38:37;12.50;;;5.65;;
50291;SDS011;36190;54.980;73.388;2023-03-01T04:41:06;12.15;;;4.53;;
50291;SDS011;36190;54.980;73.388;2023-03-01T04:43:35;10.95;;;4.82;;
50291;SDS011;36190;54.980;73.388;2023-03-01T04:46:03;10.90;;;5.03;;
50291;SDS011;36190;54.980;73.388;2023-03-01T04:48:34;11.02;;;5.13;;
50291;SDS011;36190;54.980;73.388;2023-03-01T04:51:02;10.95;;;5.25;;
50291;SDS011;36190;54.980;73.388;2023-03-01T04:53:31;12.43;;;5.18;;
50291;SDS011;36190;54.980;73.388;2023-03-01T04:56:03;10.85;;;5.35;;
50291;SDS011;36190;54.980;73.388;2023-03-01T04:58:31;15.80;;;7.13;;
50291;SDS011;36190;54.980;73.388;2023-03-01T05:00:58;13.18;;;5.93;;
50291;SDS011;36190;54.980;73.388;2023-03-01T05:03:26;14.68;;;6.25;;
50291;SDS011;36190;54.980;73.388;2023-03-01T05:05:54;11.70;;;6.05;;
50291;SDS011;36190;54.980;73.388;2023-03-01T05:08:24;14.35;;;6.22;;
50291;SDS011;36190;54.980;73.388;2023-03-01T05:10:52;13.80;;;7.15;;
50291;SDS011;36190;54.980;73.388;2023-03-01T05:13:23;13.98;;;6.85;;
50291;SDS011;36190;54.980;73.388;2023-03-01T05:15:53;14.35;;;7.63;;
50291;SDS011;36190;54.980;73.388;2023-03-01T05:18:22;13.85;;;6.90;;
50291;SDS011;36190;54.980;73.388;2023-03-01T05:20:53;15.52;;;8.75;;
50291;SDS011;36190;54.980;73.388;2023-03-01T05:23:23;14.73;;;7.05;;
50291;SDS011;36190;54.980;73.388;2023-03-01T05:25:51;13.95;;;7.20;;
50291;SDS011;36190;54.980;73.388;2023-03-01T05:28:19;14.65;;;7.57;;
50291;SDS011;36190;54.980;73.388;2023-03-01T05:30:48;14.50;;;7.53;;
50291;SDS011;36190;54.980;73.388;2023-03-01T05:33:17;14.68;;;6.97;;
50291;SDS011;36190;54.980;73.388;2023-03-01T05:35:47;13.65;;;6.80;;
50291;SDS011;36190;54.980;73.388;2023-03-01T05:38:15;14.40;;;7.72;;
50291;SDS011;36190;54.980;73.388;2023-03-01T05:40:44;14.95;;;7.53;;
50291;SDS011;36190;54.980;73.388;2023-03-01T05:43:13;14.05;;;6.85;;
50291;SDS011;36190;54.980;73.388;2023-03-01T05:45:43;13.43;;;7.10;;
50291;SDS011;36190;54.980;73.388;2023-03-01T05:48:13;13.93;;;6.43;;
50291;SDS011;36190;54.980;73.388;2023-03-01T05:50:41;12.75;;;6.60;;
50291;SDS011;36190;54.980;73.388;2023-03-01T05:53:10;12.32;;;6.47;;
50291;SDS011;36190;54.980;73.388;2023-03-01T05:55:39;14.95;;;6.72;;
50291;SDS011;36190;54.980;73.388;2023-03-01T05:58:09;13.93;;;6.25;;
50291;SDS011;36190;54.980;73.388;2023-03-01T06:00:39;12.90;;;6.38;;
50291;SDS011;36190;54.980;73.388;2023-03-01T06:03:09;12.43;;;6.45;;
50291;SDS011;36190;54.980;73.388;2023-03-01T06:05:39;13.50;;;6.28;;
50291;SDS011;36190;54.980;73.388;2023-03-01T06:08:06;13.20;;;6.75;;
50291;SDS011;36190;54.980;73.388;2023-03-01T06:10:35;12.77;;;6.95;;
50291;SDS011;36190;54.980;73.388;2023-03-01T06:13:03;14.70;;;6.85;;
50291;SDS011;36190;54.980;73.388;2023-03-01T06:15:31;14.10;;;7.00;;
50291;SDS011;36190;54.980;73.388;2023-03-01T06:17:59;13.13;;;6.93;;
50291;SDS011;36190;54.980;73.388;2023-03-01T06:20:27;12.65;;;6.63;;
50291;SDS011;36190;54.980;73.388;2023-03-01T06:22:57;14.40;;;7.28;;
50291;SDS011;36190;54.980;73.388;2023-03-01T06:25:25;12.35;;;6.80;;
50291;SDS011;36190;54.980;73.388;2023-03-01T06:27:54;13.93;;;7.55;;
50291;SDS011;36190;54.980;73.388;2023-03-01T06:30:22;15.48;;;7.38;;
50291;SDS011;36190;54.980;73.388;2023-03-01T06:32:51;14.75;;;8.07;;
50291;SDS011;36190;54.980;73.388;2023-03-01T06:35:25;16.15;;;7.75;;
50291;SDS011;36190;54.980;73.388;2023-03-01T06:37:55;14.80;;;7.68;;
50291;SDS011;36190;54.980;73.388;2023-03-01T06:40:24;15.23;;;8.43;;
50291;SDS011;36190;54.980;73.388;2023-03-01T06:42:52;15.73;;;8.60;;
50291;SDS011;36190;54.980;73.388;2023-03-01T06:45:20;16.08;;;9.05;;
50291;SDS011;36190;54.980;73.388;2023-03-01T06:47:48;15.77;;;7.82;;
50291;SDS011;36190;54.980;73.388;2023-03-01T06:50:16;15.07;;;8.35;;
50291;SDS011;36190;54.980;73.388;2023-03-01T06:52:44;16.10;;;8.90;;
50291;SDS011;36190;54.980;73.388;2023-03-01T06:55:15;14.23;;;7.85;;
50291;SDS011;36190;54.980;73.388;2023-03-01T06:57:42;17.17;;;9.48;;
50291;SDS011;36190;54.980;73.388;2023-03-01T07:00:10;15.68;;;9.55;;
50291;SDS011;36190;54.980;73.388;2023-03-01T07:02:38;15.98;;;8.57;;
50291;SDS011;36190;54.980;73.388;2023-03-01T07:05:06;17.98;;;9.23;;
50291;SDS011;36190;54.980;73.388;2023-03-01T07:07:34;16.38;;;8.55;;
50291;SDS011;36190;54.980;73.388;2023-03-01T07:10:02;16.48;;;9.00;;
50291;SDS011;36190;54.980;73.388;2023-03-01T07:12:32;16.95;;;9.55;;
50291;SDS011;36190;54.980;73.388;2023-03-01T07:14:59;19.08;;;10.15;;
50291;SDS011;36190;54.980;73.388;2023-03-01T07:17:27;27.92;;;16.83;;
50291;SDS011;36190;54.980;73.388;2023-03-01T07:19:55;22.08;;;10.90;;
50291;SDS011;36190;54.980;73.388;2023-03-01T07:22:22;19.10;;;9.93;;
50291;SDS011;36190;54.980;73.388;2023-03-01T07:24:50;19.45;;;9.60;;
50291;SDS011;36190;54.980;73.388;2023-03-01T07:27:17;16.70;;;9.18;;
50291;SDS011;36190;54.980;73.388;2023-03-01T07:29:46;16.05;;;9.32;;
50291;SDS011;36190;54.980;73.388;2023-03-01T07:32:14;16.60;;;9.48;;
50291;SDS011;36190;54.980;73.388;2023-03-01T07:34:41;18.17;;;9.98;;
50291;SDS011;36190;54.980;73.388;2023-03-01T07:37:08;16.23;;;8.75;;
50291;SDS011;36190;54.980;73.388;2023-03-01T07:39:36;18.33;;;9.48;;
50291;SDS011;36190;54.980;73.388;2023-03-01T07:42:03;15.80;;;8.27;;
50291;SDS011;36190;54.980;73.388;2023-03-01T07:44:31;16.90;;;8.20;;
50291;SDS011;36190;54.980;73.388;2023-03-01T07:47:00;15.77;;;8.40;;
50291;SDS011;36190;54.980;73.388;2023-03-01T07:49:27;18.73;;;8.90;;
50291;SDS011;36190;54.980;73.388;2023-03-01T07:51:55;16.90;;;9.27;;
50291;SDS011;36190;54.980;73.388;2023-03-01T07:54:22;15.70;;;8.40;;
50291;SDS011;36190;54.980;73.388;2023-03-01T07:56:51;14.52;;;8.65;;
50291;SDS011;36190;54.980;73.388;2023-03-01T07:59:20;14.55;;;8.30;;
50291;SDS011;36190;54.980;73.388;2023-03-01T08:01:48;14.18;;;8.07;;
50291;SDS011;36190;54.980;73.388;2023-03-01T08:04:17;14.10;;;7.90;;
50291;SDS011;36190;54.980;73.388;2023-03-01T08:06:45;17.67;;;8.20;;
50291;SDS011;36190;54.980;73.388;2023-03-01T08:09:12;15.95;;;7.50;;
50291;SDS011;36190;54.980;73.388;2023-03-01T08:11:40;13.75;;;7.80;;
50291;SDS011;36190;54.980;73.388;2023-03-01T08:14:07;15.88;;;8.23;;
50291;SDS011;36190;54.980;73.388;2023-03-01T08:16:35;15.68;;;7.90;;
50291;SDS011;36190;54.980;73.388;2023-03-01T08:19:03;19.10;;;7.25;;
50291;SDS011;36190;54.980;73.388;2023-03-01T08:21:33;17.05;;;7.43;;
50291;SDS011;36190;54.980;73.388;2023-03-01T08:24:01;13.32;;;6.72;;
50291;SDS011;36190;54.980;73.388;2023-03-01T08:26:29;12.90;;;6.65;;
50291;SDS011;36190;54.980;73.388;2023-03-01T08:28:57;16.55;;;7.47;;
50291;SDS011;36190;54.980;73.388;2023-03-01T08:31:25;15.60;;;6.82;;
50291;SDS011;36190;54.980;73.388;2023-03-01T08:33:55;13.88;;;6.70;;
50291;SDS011;36190;54.980;73.388;2023-03-01T08:36:25;14.10;;;6.93;;
50291;SDS011;36190;54.980;73.388;2023-03-01T08:38:55;16.05;;;6.90;;
50291;SDS011;36190;54.980;73.388;2023-03-01T08:41:23;12.20;;;6.22;;
50291;SDS011;36190;54.980;73.388;2023-03-01T08:43:51;14.40;;;7.05;;
50291;SDS011;36190;54.980;73.388;2023-03-01T08:46:23;23.20;;;6.85;;
50291;SDS011;36190;54.980;73.388;2023-03-01T08:48:51;13.00;;;6.85;;
50291;SDS011;36190;54.980;73.388;2023-03-01T08:51:19;17.20;;;7.80;;
50291;SDS011;36190;54.980;73.388;2023-03-01T08:53:47;13.43;;;6.85;;
50291;SDS011;36190;54.980;73.388;2023-03-01T08:56:17;12.20;;;6.50;;
50291;SDS011;36190;54.980;73.388;2023-03-01T08:58:45;12.27;;;6.13;;
50291;SDS011;36190;54.980;73.388;2023-03-01T09:01:13;13.43;;;6.78;;
50291;SDS011;36190;54.980;73.388;2023-03-01T09:03:42;13.35;;;6.82;;
50291;SDS011;36190;54.980;73.388;2023-03-01T09:06:10;13.77;;;7.35;;
50291;SDS011;36190;54.980;73.388;2023-03-01T09:08:39;15.30;;;8.00;;
50291;SDS011;36190;54.980;73.388;2023-03-01T09:11:08;13.00;;;6.70;;
50291;SDS011;36190;54.980;73.388;2023-03-01T09:13:39;13.18;;;6.63;;
50291;SDS011;36190;54.980;73.388;2023-03-01T09:16:07;11.55;;;6.03;;
50291;SDS011;36190;54.980;73.388;2023-03-01T09:18:35;12.85;;;6.75;;
50291;SDS011;36190;54.980;73.388;2023-03-01T09:21:03;13.93;;;6.18;;
50291;SDS011;36190;54.980;73.388;2023-03-01T09:23:32;14.85;;;6.97;;
50291;SDS011;36190;54.980;73.388;2023-03-01T09:26:01;13.68;;;6.72;;
50291;SDS011;36190;54.980;73.388;2023-03-01T09:28:29;14.05;;;6.60;;
50291;SDS011;36190;54.980;73.388;2023-03-01T09:30:59;15.68;;;7.20;;
50291;SDS011;36190;54.980;73.388;2023-03-01T09:33:27;13.25;;;6.90;;
50291;SDS011;36190;54.980;73.388;2023-03-01T09:35:58;15.10;;;7.55;;
50291;SDS011;36190;54.980;73.388;2023-03-01T09:38:26;13.63;;;7.32;;
50291;SDS011;36190;54.980;73.388;2023-03-01T09:40:54;14.07;;;7.45;;
50291;SDS011;36190;54.980;73.388;2023-03-01T09:43:23;15.80;;;7.20;;
50291;SDS011;36190;54.980;73.388;2023-03-01T09:45:57;13.73;;;7.45;;
50291;SDS011;36190;54.980;73.388;2023-03-01T09:48:33;12.80;;;6.93;;
50291;SDS011;36190;54.980;73.388;2023-03-01T09:51:09;12.93;;;7.05;;
50291;SDS011;36190;54.980;73.388;2023-03-01T09:53:44;13.65;;;7.18;;
50291;SDS011;36190;54.980;73.388;2023-03-01T09:56:12;15.20;;;6.55;;
50291;SDS011;36190;54.980;73.388;2023-03-01T09:58:47;12.77;;;6.85;;
50291;SDS011;36190;54.980;73.388;2023-03-01T10:01:25;14.02;;;7.22;;
50291;SDS011;36190;54.980;73.388;2023-03-01T10:04:11;14.05;;;6.93;;
50291;SDS011;36190;54.980;73.388;2023-03-01T10:06:51;13.40;;;7.05;;
50291;SDS011;36190;54.980;73.388;2023-03-01T10:09:27;15.77;;;7.20;;
50291;SDS011;36190;54.980;73.388;2023-03-01T10:11:59;13.55;;;6.75;;
50291;SDS011;36190;54.980;73.388;2023-03-01T10:14:30;14.85;;;6.47;;
50291;SDS011;36190;54.980;73.388;2023-03-01T10:17:03;13.60;;;6.35;;
50291;SDS011;36190;54.980;73.388;2023-03-01T10:19:36;13.57;;;7.00;;
50291;SDS011;36190;54.980;73.388;2023-03-01T10:22:09;16.33;;;6.82;;
50291;SDS011;36190;54.980;73.388;2023-03-01T10:24:42;12.05;;;6.70;;
50291;SDS011;36190;54.980;73.388;2023-03-01T10:27:15;12.50;;;6.45;;
50291;SDS011;36190;54.980;73.388;2023-03-01T10:29:48;11.45;;;6.68;;
50291;SDS011;36190;54.980;73.388;2023-03-01T10:32:22;15.15;;;6.75;;
50291;SDS011;36190;54.980;73.388;2023-03-01T10:34:50;13.88;;;6.53;;
50291;SDS011;36190;54.980;73.388;2023-03-01T10:37:18;14.77;;;7.40;;
50291;SDS011;36190;54.980;73.388;2023-03-01T10:39:58;14.68;;;6.60;;
50291;SDS011;36190;54.980;73.388;2023-03-01T10:42:31;13.45;;;6.75;;
50291;SDS011;36190;54.980;73.388;2023-03-01T10:45:14;14.80;;;6.75;;
50291;SDS011;36190;54.980;73.388;2023-03-01T10:48:04;14.68;;;7.25;;
50291;SDS011;36190;54.980;73.388;2023-03-01T10:50:36;15.02;;;6.80;;
50291;SDS011;36190;54.980;73.388;2023-03-01T10:53:09;12.15;;;6.57;;
50291;SDS011;36190;54.980;73.388;2023-03-01T10:55:49;12.93;;;6.63;;
50291;SDS011;36190;54.980;73.388;2023-03-01T10:58:24;13.65;;;7.03;;
50291;SDS011;36190;54.980;73.388;2023-03-01T11:00:52;12.80;;;6.78;;
50291;SDS011;36190;54.980;73.388;2023-03-01T11:03:23;15.95;;;6.93;;
50291;SDS011;36190;54.980;73.388;2023-03-01T11:05:54;14.60;;;7.43;;
50291;SDS011;36190;54.980;73.388;2023-03-01T11:08:38;13.88;;;6.88;;
50291;SDS011;36190;54.980;73.388;2023-03-01T11:13:53;15.18;;;7.07;;
50291;SDS011;36190;54.980;73.388;2023-03-01T11:16:23;19.95;;;8.48;;
50291;SDS011;36190;54.980;73.388;2023-03-01T11:18:59;15.30;;;7.57;;
50291;SDS011;36190;54.980;73.388;2023-03-01T11:21:31;14.13;;;7.32;;
50291;SDS011;36190;54.980;73.388;2023-03-01T11:24:02;17.23;;;7.95;;
50291;SDS011;36190;54.980;73.388;2023-03-01T11:26:31;14.93;;;8.07;;
50291;SDS011;36190;54.980;73.388;2023-03-01T11:29:03;13.73;;;7.30;;
50291;SDS011;36190;54.980;73.388;2023-03-01T11:31:39;14.57;;;7.07;;
50291;SDS011;36190;54.980;73.388;2023-03-01T11:34:11;15.10;;;7.38;;
50291;SDS011;36190;54.980;73.388;2023-03-01T11:36:41;18.97;;;7.67;;
50291;SDS011;36190;54.980;73.388;2023-03-01T11:39:17;14.75;;;6.80;;
50291;SDS011;36190;54.980;73.388;2023-03-01T11:41:58;14.95;;;7.50;;
50291;SDS011;36190;54.980;73.388;2023-03-01T11:44:33;18.02;;;8.50;;
50291;SDS011;36190;54.980;73.388;2023-03-01T11:47:07;15.23;;;8.40;;
50291;SDS011;36190;54.980;73.388;2023-03-01T11:49:51;17.83;;;9.32;;
50291;SDS011;36190;54.980;73.388;2023-03-01T11:52:37;13.88;;;6.93;;
50291;SDS011;36190;54.980;73.388;2023-03-01T11:55:18;17.13;;;7.80;;
50291;SDS011;36190;54.980;73.388;2023-03-01T11:58:01;14.50;;;7.68;;
50291;SDS011;36190;54.980;73.388;2023-03-01T12:00:50;16.92;;;7.65;;
50291;SDS011;36190;54.980;73.388;2023-03-01T12:03:34;20.35;;;9.05;;
50291;SDS011;36190;54.980;73.388;2023-03-01T12:06:21;18.25;;;8.50;;
50291;SDS011;36190;54.980;73.388;2023-03-01T12:09:03;16.08;;;8.88;;
50291;SDS011;36190;54.980;73.388;2023-03-01T12:11:49;20.63;;;9.52;;
50291;SDS011;36190;54.980;73.388;2023-03-01T12:14:39;19.00;;;9.48;;
50291;SDS011;36190;54.980;73.388;2023-03-01T12:23:01;19.15;;;9.50;;
50291;SDS011;36190;54.980;73.388;2023-03-01T12:25:48;22.67;;;10.50;;
50291;SDS011;36190;54.980;73.388;2023-03-01T12:28:24;17.20;;;8.50;;
50291;SDS011;36190;54.980;73.388;2023-03-01T12:31:13;19.00;;;9.20;;
50291;SDS011;36190;54.980;73.388;2023-03-01T12:34:01;19.55;;;9.25;;
50291;SDS011;36190;54.980;73.388;2023-03-01T12:36:40;21.23;;;9.35;;
50291;SDS011;36190;54.980;73.388;2023-03-01T12:39:27;19.80;;;9.10;;
50291;SDS011;36190;54.980;73.388;2023-03-01T12:42:04;18.08;;;9.43;;
50291;SDS011;36190;54.980;73.388;2023-03-01T12:44:47;19.13;;;9.43;;
50291;SDS011;36190;54.980;73.388;2023-03-01T12:47:29;19.35;;;9.63;;
50291;SDS011;36190;54.980;73.388;2023-03-01T12:50:12;18.63;;;9.88;;
50291;SDS011;36190;54.980;73.388;2023-03-01T12:52:46;22.67;;;9.77;;
50291;SDS011;36190;54.980;73.388;2023-03-01T12:55:22;25.27;;;10.43;;
50291;SDS011;36190;54.980;73.388;2023-03-01T12:57:56;23.13;;;8.85;;
50291;SDS011;36190;54.980;73.388;2023-03-01T13:00:35;18.30;;;9.65;;
50291;SDS011;36190;54.980;73.388;2023-03-01T13:03:12;19.75;;;9.15;;
50291;SDS011;36190;54.980;73.388;2023-03-01T13:05:50;18.60;;;8.68;;
50291;SDS011;36190;54.980;73.388;2023-03-01T13:08:29;23.80;;;9.88;;
50291;SDS011;36190;54.980;73.388;2023-03-01T13:11:05;17.98;;;9.07;;
50291;SDS011;36190;54.980;73.388;2023-03-01T13:13:38;20.98;;;9.93;;
50291;SDS011;36190;54.980;73.388;2023-03-01T13:19:10;20.13;;;8.85;;
50291;SDS011;36190;54.980;73.388;2023-03-01T13:21:41;20.92;;;9.85;;
50291;SDS011;36190;54.980;73.388;2023-03-01T13:24:38;19.27;;;8.77;;
50291;SDS011;36190;54.980;73.388;2023-03-01T13:27:20;21.30;;;9.75;;
50291;SDS011;36190;54.980;73.388;2023-03-01T13:29:54;21.40;;;9.48;;
50291;SDS011;36190;54.980;73.388;2023-03-01T13:32:25;18.25;;;9.10;;
50291;SDS011;36190;54.980;73.388;2023-03-01T13:34:55;21.75;;;9.70;;
50291;SDS011;36190;54.980;73.388;2023-03-01T13:37:25;19.70;;;9.30;;
50291;SDS011;36190;54.980;73.388;2023-03-01T13:39:57;19.45;;;9.98;;
50291;SDS011;36190;54.980;73.388;2023-03-01T13:42:33;18.55;;;9.52;;
50291;SDS011;36190;54.980;73.388;2023-03-01T13:45:12;19.48;;;9.20;;
50291;SDS011;36190;54.980;73.388;2023-03-01T13:47:47;20.10;;;9.80;;
50291;SDS011;36190;54.980;73.388;2023-03-01T13:50:20;21.17;;;10.13;;
50291;SDS011;36190;54.980;73.388;2023-03-01T13:52:51;22.27;;;10.65;;
50291;SDS011;36190;54.980;73.388;2023-03-01T13:55:23;19.45;;;9.40;;
50291;SDS011;36190;54.980;73.388;2023-03-01T13:57:55;18.98;;;8.68;;
50291;SDS011;36190;54.980;73.388;2023-03-01T14:00:28;18.55;;;9.95;;
50291;SDS011;36190;54.980;73.388;2023-03-01T14:03:01;20.52;;;10.65;;
50291;SDS011;36190;54.980;73.388;2023-03-01T14:05:31;23.23;;;11.15;;
50291;SDS011;36190;54.980;73.388;2023-03-01T14:07:59;20.98;;;11.07;;
50291;SDS011;36190;54.980;73.388;2023-03-01T14:10:28;21.77;;;9.98;;
50291;SDS011;36190;54.980;73.388;2023-03-01T14:13:05;18.70;;;9.98;;
50291;SDS011;36190;54.980;73.388;2023-03-01T14:15:42;19.48;;;9.48;;
50291;SDS011;36190;54.980;73.388;2023-03-01T14:18:17;19.08;;;9.18;;
50291;SDS011;36190;54.980;73.388;2023-03-01T14:20:49;18.63;;;9.68;;
50291;SDS011;36190;54.980;73.388;2023-03-01T14:23:18;20.02;;;8.63;;
50291;SDS011;36190;54.980;73.388;2023-03-01T14:25:47;22.15;;;10.60;;
50291;SDS011;36190;54.980;73.388;2023-03-01T14:28:18;18.30;;;8.35;;
50291;SDS011;36190;54.980;73.388;2023-03-01T14:30:49;18.42;;;9.07;;
50291;SDS011;36190;54.980;73.388;2023-03-01T14:33:19;17.65;;;9.43;;
50291;SDS011;36190;54.980;73.388;2023-03-01T14:35:52;19.38;;;8.95;;
50291;SDS011;36190;54.980;73.388;2023-03-01T14:38:21;18.63;;;9.70;;
50291;SDS011;36190;54.980;73.388;2023-03-01T14:40:50;20.95;;;10.85;;
50291;SDS011;36190;54.980;73.388;2023-03-01T14:43:22;17.98;;;8.82;;
50291;SDS011;36190;54.980;73.388;2023-03-01T14:45:51;17.80;;;9.07;;
50291;SDS011;36190;54.980;73.388;2023-03-01T14:48:19;19.60;;;9.30;;
50291;SDS011;36190;54.980;73.388;2023-03-01T14:50:47;17.75;;;8.98;;
50291;SDS011;36190;54.980;73.388;2023-03-01T14:53:17;19.65;;;9.52;;
50291;SDS011;36190;54.980;73.388;2023-03-01T14:55:47;18.83;;;9.18;;
50291;SDS011;36190;54.980;73.388;2023-03-01T14:58:20;19.30;;;9.05;;